sensor_id;sensor_type;location;lat;lon;timestamp;temperature;humidity
44863;DHT22;30597;49.628;10.850;2024-03-06T00:01:40;19.20;57.00
44863;DHT22;30597;49.628;10.850;2024-03-06T00:04:06;19.20;57.10
44863;DHT22;30597;49.628;10.850;2024-03-06T00:06:31;19.20;57.10
44863;DHT22;30597;49.628;10.850;2024-03-06T00:08:57;19.20;57.20
44863;DHT22;30597;49.628;10.850;2024-03-06T00:11:22;19.20;57.20
44863;DHT22;30597;49.628;10.850;2024-03-06T00:13:48;19.20;57.20
44863;DHT22;30597;49.628;10.850;2024-03-06T00:16:14;19.20;57.30
44863;DHT22;30597;49.628;10.850;2024-03-06T00:18:39;19.10;57.30
44863;DHT22;30597;49.628;10.850;2024-03-06T00:21:05;19.20;57.50
44863;DHT22;30597;49.628;10.850;2024-03-06T00:23:32;19.10;57.50
44863;DHT22;30597;49.628;10.850;2024-03-06T00:25:57;19.20;57.70
44863;DHT22;30597;49.628;10.850;2024-03-06T00:28:23;19.20;57.70
44863;DHT22;30597;49.628;10.850;2024-03-06T00:30:49;19.20;57.70
44863;DHT22;30597;49.628;10.850;2024-03-06T00:33:15;19.30;57.70
44863;DHT22;30597;49.628;10.850;2024-03-06T00:35:40;19.20;57.80
44863;DHT22;30597;49.628;10.850;2024-03-06T00:38:06;19.30;57.60
44863;DHT22;30597;49.628;10.850;2024-03-06T00:40:31;19.20;57.50
44863;DHT22;30597;49.628;10.850;2024-03-06T00:42:57;19.20;57.40
44863;DHT22;30597;49.628;10.850;2024-03-06T00:45:23;19.20;57.50
44863;DHT22;30597;49.628;10.850;2024-03-06T00:47:49;19.10;57.50
44863;DHT22;30597;49.628;10.850;2024-03-06T00:50:15;19.20;57.60
44863;DHT22;30597;49.628;10.850;2024-03-06T00:52:42;19.10;57.60
44863;DHT22;30597;49.628;10.850;2024-03-06T00:55:09;19.10;57.50
44863;DHT22;30597;49.628;10.850;2024-03-06T00:57:35;19.10;57.70
44863;DHT22;30597;49.628;10.850;2024-03-06T01:00:01;19.10;57.70
44863;DHT22;30597;49.628;10.850;2024-03-06T01:02:31;19.10;57.80
44863;DHT22;30597;49.628;10.850;2024-03-06T01:04:56;19.10;57.70
44863;DHT22;30597;49.628;10.850;2024-03-06T01:07:22;19.10;57.70
44863;DHT22;30597;49.628;10.850;2024-03-06T01:09:47;19.10;57.70
44863;DHT22;30597;49.628;10.850;2024-03-06T01:12:13;19.10;57.70
44863;DHT22;30597;49.628;10.850;2024-03-06T01:14:39;19.10;57.70
44863;DHT22;30597;49.628;10.850;2024-03-06T01:17:04;19.10;57.80
44863;DHT22;30597;49.628;10.850;2024-03-06T01:19:30;19.00;57.70
44863;DHT22;30597;49.628;10.850;2024-03-06T01:21:56;19.10;57.80
44863;DHT22;30597;49.628;10.850;2024-03-06T01:24:21;19.00;57.80
44863;DHT22;30597;49.628;10.850;2024-03-06T01:26:47;19.00;57.80
44863;DHT22;30597;49.628;10.850;2024-03-06T01:29:12;19.00;57.80
44863;DHT22;30597;49.628;10.850;2024-03-06T01:31:38;19.00;57.80
44863;DHT22;30597;49.628;10.850;2024-03-06T01:34:03;19.00;57.90
44863;DHT22;30597;49.628;10.850;2024-03-06T01:36:29;19.00;57.90
44863;DHT22;30597;49.628;10.850;2024-03-06T01:38:55;19.10;57.90
44863;DHT22;30597;49.628;10.850;2024-03-06T01:41:20;19.00;57.90
44863;DHT22;30597;49.628;10.850;2024-03-06T01:43:46;19.10;58.00
44863;DHT22;30597;49.628;10.850;2024-03-06T01:46:12;19.10;58.00
44863;DHT22;30597;49.628;10.850;2024-03-06T01:48:38;19.00;57.90
44863;DHT22;30597;49.628;10.850;2024-03-06T01:51:04;19.00;58.10
44863;DHT22;30597;49.628;10.850;2024-03-06T01:53:31;19.00;58.00
44863;DHT22;30597;49.628;10.850;2024-03-06T01:55:59;19.00;58.20
44863;DHT22;30597;49.628;10.850;2024-03-06T01:58:25;19.00;58.20
44863;DHT22;30597;49.628;10.850;2024-03-06T02:00:50;19.10;58.10
44863;DHT22;30597;49.628;10.850;2024-03-06T02:03:17;19.00;58.20
44863;DHT22;30597;49.628;10.850;2024-03-06T02:05:44;19.00;58.30
44863;DHT22;30597;49.628;10.850;2024-03-06T02:08:10;19.00;58.20
44863;DHT22;30597;49.628;10.850;2024-03-06T02:10:35;19.00;58.30
44863;DHT22;30597;49.628;10.850;2024-03-06T02:13:01;19.00;58.20
44863;DHT22;30597;49.628;10.850;2024-03-06T02:15:27;19.00;58.30
44863;DHT22;30597;49.628;10.850;2024-03-06T02:17:52;19.00;58.30
44863;DHT22;30597;49.628;10.850;2024-03-06T02:20:25;19.10;58.60
44863;DHT22;30597;49.628;10.850;2024-03-06T02:22:51;19.00;58.40
44863;DHT22;30597;49.628;10.850;2024-03-06T02:25:17;19.00;58.40
44863;DHT22;30597;49.628;10.850;2024-03-06T02:27:44;19.00;58.40
44863;DHT22;30597;49.628;10.850;2024-03-06T02:30:10;18.90;58.40
44863;DHT22;30597;49.628;10.850;2024-03-06T02:32:36;19.00;58.40
44863;DHT22;30597;49.628;10.850;2024-03-06T02:35:02;19.00;58.50
44863;DHT22;30597;49.628;10.850;2024-03-06T02:37:28;19.00;58.50
44863;DHT22;30597;49.628;10.850;2024-03-06T02:39:54;19.00;58.50
44863;DHT22;30597;49.628;10.850;2024-03-06T02:42:20;18.90;58.50
44863;DHT22;30597;49.628;10.850;2024-03-06T02:44:45;19.00;58.60
44863;DHT22;30597;49.628;10.850;2024-03-06T02:47:11;18.90;58.70
44863;DHT22;30597;49.628;10.850;2024-03-06T02:49:36;18.90;58.70
44863;DHT22;30597;49.628;10.850;2024-03-06T02:52:02;18.90;59.50
44863;DHT22;30597;49.628;10.850;2024-03-06T02:54:28;19.00;58.90
44863;DHT22;30597;49.628;10.850;2024-03-06T02:56:53;19.00;58.90
44863;DHT22;30597;49.628;10.850;2024-03-06T02:59:19;19.00;58.80
44863;DHT22;30597;49.628;10.850;2024-03-06T03:01:45;19.00;59.00
44863;DHT22;30597;49.628;10.850;2024-03-06T03:04:10;18.90;58.80
44863;DHT22;30597;49.628;10.850;2024-03-06T03:06:36;19.00;58.90
44863;DHT22;30597;49.628;10.850;2024-03-06T03:09:02;19.00;58.90
44863;DHT22;30597;49.628;10.850;2024-03-06T03:11:29;18.90;58.90
44863;DHT22;30597;49.628;10.850;2024-03-06T03:13:55;18.90;58.90
44863;DHT22;30597;49.628;10.850;2024-03-06T03:16:20;19.00;59.00
44863;DHT22;30597;49.628;10.850;2024-03-06T03:18:46;18.90;58.80
44863;DHT22;30597;49.628;10.850;2024-03-06T03:21:13;18.90;58.90
44863;DHT22;30597;49.628;10.850;2024-03-06T03:23:40;18.90;58.90
44863;DHT22;30597;49.628;10.850;2024-03-06T03:26:07;18.90;58.90
44863;DHT22;30597;49.628;10.850;2024-03-06T03:28:32;18.90;59.70
44863;DHT22;30597;49.628;10.850;2024-03-06T03:30:58;18.90;58.90
44863;DHT22;30597;49.628;10.850;2024-03-06T03:33:24;18.90;59.00
44863;DHT22;30597;49.628;10.850;2024-03-06T03:35:50;18.90;59.00
44863;DHT22;30597;49.628;10.850;2024-03-06T03:38:15;18.90;59.00
44863;DHT22;30597;49.628;10.850;2024-03-06T03:40:41;18.90;59.10
44863;DHT22;30597;49.628;10.850;2024-03-06T03:43:07;18.90;59.10
44863;DHT22;30597;49.628;10.850;2024-03-06T03:45:33;18.90;59.10
44863;DHT22;30597;49.628;10.850;2024-03-06T03:48:00;18.80;59.10
44863;DHT22;30597;49.628;10.850;2024-03-06T03:50:28;18.80;59.20
44863;DHT22;30597;49.628;10.850;2024-03-06T03:52:54;18.80;59.10
44863;DHT22;30597;49.628;10.850;2024-03-06T03:55:20;18.80;59.20
44863;DHT22;30597;49.628;10.850;2024-03-06T03:57:45;18.80;59.00
44863;DHT22;30597;49.628;10.850;2024-03-06T04:00:12;18.90;59.20
44863;DHT22;30597;49.628;10.850;2024-03-06T04:02:38;18.90;59.30
44863;DHT22;30597;49.628;10.850;2024-03-06T04:05:04;18.80;59.10
44863;DHT22;30597;49.628;10.850;2024-03-06T04:07:30;18.80;59.10
44863;DHT22;30597;49.628;10.850;2024-03-06T04:09:55;18.80;59.10
44863;DHT22;30597;49.628;10.850;2024-03-06T04:12:21;18.80;59.10
44863;DHT22;30597;49.628;10.850;2024-03-06T04:14:46;18.80;59.20
44863;DHT22;30597;49.628;10.850;2024-03-06T04:17:12;18.80;59.80
44863;DHT22;30597;49.628;10.850;2024-03-06T04:19:37;18.80;59.20
44863;DHT22;30597;49.628;10.850;2024-03-06T04:22:03;18.80;59.20
44863;DHT22;30597;49.628;10.850;2024-03-06T04:24:29;18.80;59.20
44863;DHT22;30597;49.628;10.850;2024-03-06T04:26:54;18.90;59.30
44863;DHT22;30597;49.628;10.850;2024-03-06T04:29:20;18.80;59.30
44863;DHT22;30597;49.628;10.850;2024-03-06T04:31:45;18.80;59.30
44863;DHT22;30597;49.628;10.850;2024-03-06T04:34:11;18.80;59.60
44863;DHT22;30597;49.628;10.850;2024-03-06T04:36:36;18.90;59.70
44863;DHT22;30597;49.628;10.850;2024-03-06T04:39:02;18.90;59.80
44863;DHT22;30597;49.628;10.850;2024-03-06T04:41:33;18.90;60.00
44863;DHT22;30597;49.628;10.850;2024-03-06T04:43:58;19.00;60.30
44863;DHT22;30597;49.628;10.850;2024-03-06T04:46:26;19.00;60.10
44863;DHT22;30597;49.628;10.850;2024-03-06T04:48:51;19.10;60.00
44863;DHT22;30597;49.628;10.850;2024-03-06T04:51:17;19.10;60.00
44863;DHT22;30597;49.628;10.850;2024-03-06T04:53:45;19.10;60.00
44863;DHT22;30597;49.628;10.850;2024-03-06T04:56:11;19.20;60.20
44863;DHT22;30597;49.628;10.850;2024-03-06T04:58:36;19.30;60.00
44863;DHT22;30597;49.628;10.850;2024-03-06T05:01:02;19.20;59.80
44863;DHT22;30597;49.628;10.850;2024-03-06T05:03:29;19.20;59.90
44863;DHT22;30597;49.628;10.850;2024-03-06T05:05:54;19.20;59.80
44863;DHT22;30597;49.628;10.850;2024-03-06T05:08:20;19.20;60.00
44863;DHT22;30597;49.628;10.850;2024-03-06T05:10:46;19.10;60.10
44863;DHT22;30597;49.628;10.850;2024-03-06T05:13:11;19.20;60.30
44863;DHT22;30597;49.628;10.850;2024-03-06T05:15:37;19.10;60.30
44863;DHT22;30597;49.628;10.850;2024-03-06T05:18:04;19.10;60.30
44863;DHT22;30597;49.628;10.850;2024-03-06T05:20:30;19.10;60.30
44863;DHT22;30597;49.628;10.850;2024-03-06T05:22:58;19.10;60.20
44863;DHT22;30597;49.628;10.850;2024-03-06T05:25:24;19.10;60.20
44863;DHT22;30597;49.628;10.850;2024-03-06T05:27:50;19.10;60.10
44863;DHT22;30597;49.628;10.850;2024-03-06T05:30:16;19.10;60.20
44863;DHT22;30597;49.628;10.850;2024-03-06T05:32:41;19.10;60.10
44863;DHT22;30597;49.628;10.850;2024-03-06T05:35:07;19.10;60.20
44863;DHT22;30597;49.628;10.850;2024-03-06T05:37:35;19.10;60.20
44863;DHT22;30597;49.628;10.850;2024-03-06T05:40:01;19.00;60.20
44863;DHT22;30597;49.628;10.850;2024-03-06T05:42:30;19.10;60.30
44863;DHT22;30597;49.628;10.850;2024-03-06T05:44:57;19.00;60.40
44863;DHT22;30597;49.628;10.850;2024-03-06T05:47:26;19.00;60.50
44863;DHT22;30597;49.628;10.850;2024-03-06T05:49:52;19.10;60.40
44863;DHT22;30597;49.628;10.850;2024-03-06T05:52:17;19.00;60.40
44863;DHT22;30597;49.628;10.850;2024-03-06T05:54:43;19.00;60.40
44863;DHT22;30597;49.628;10.850;2024-03-06T05:57:09;19.00;60.40
44863;DHT22;30597;49.628;10.850;2024-03-06T05:59:34;19.00;60.40
44863;DHT22;30597;49.628;10.850;2024-03-06T06:02:00;19.00;60.30
44863;DHT22;30597;49.628;10.850;2024-03-06T06:04:26;19.00;60.40
44863;DHT22;30597;49.628;10.850;2024-03-06T06:06:51;19.00;60.30
44863;DHT22;30597;49.628;10.850;2024-03-06T06:09:17;19.00;60.30
44863;DHT22;30597;49.628;10.850;2024-03-06T06:11:44;19.00;60.30
44863;DHT22;30597;49.628;10.850;2024-03-06T06:14:09;19.00;60.30
44863;DHT22;30597;49.628;10.850;2024-03-06T06:16:39;19.00;60.20
44863;DHT22;30597;49.628;10.850;2024-03-06T06:19:06;19.00;60.50
44863;DHT22;30597;49.628;10.850;2024-03-06T06:21:32;19.00;60.50
44863;DHT22;30597;49.628;10.850;2024-03-06T06:23:58;19.00;60.60
44863;DHT22;30597;49.628;10.850;2024-03-06T06:26:23;19.00;60.40
44863;DHT22;30597;49.628;10.850;2024-03-06T06:28:49;19.00;60.30
44863;DHT22;30597;49.628;10.850;2024-03-06T06:31:15;19.00;60.40
44863;DHT22;30597;49.628;10.850;2024-03-06T06:33:41;19.00;60.30
44863;DHT22;30597;49.628;10.850;2024-03-06T06:36:06;19.00;60.20
44863;DHT22;30597;49.628;10.850;2024-03-06T06:38:32;19.00;60.30
44863;DHT22;30597;49.628;10.850;2024-03-06T06:40:58;19.00;60.30
44863;DHT22;30597;49.628;10.850;2024-03-06T06:43:24;19.10;60.40
44863;DHT22;30597;49.628;10.850;2024-03-06T06:45:49;19.00;60.40
44863;DHT22;30597;49.628;10.850;2024-03-06T06:48:16;19.00;60.40
44863;DHT22;30597;49.628;10.850;2024-03-06T06:50:41;19.00;60.30
44863;DHT22;30597;49.628;10.850;2024-03-06T06:53:07;19.00;60.20
44863;DHT22;30597;49.628;10.850;2024-03-06T06:55:32;19.00;60.30
44863;DHT22;30597;49.628;10.850;2024-03-06T06:57:58;19.00;60.30
44863;DHT22;30597;49.628;10.850;2024-03-06T07:00:24;19.00;60.40
44863;DHT22;30597;49.628;10.850;2024-03-06T07:02:50;19.00;60.40
44863;DHT22;30597;49.628;10.850;2024-03-06T07:05:16;19.00;60.30
44863;DHT22;30597;49.628;10.850;2024-03-06T07:07:41;19.00;60.50
44863;DHT22;30597;49.628;10.850;2024-03-06T07:10:07;19.10;60.90
44863;DHT22;30597;49.628;10.850;2024-03-06T07:12:34;19.20;60.70
44863;DHT22;30597;49.628;10.850;2024-03-06T07:15:00;19.30;60.70
44863;DHT22;30597;49.628;10.850;2024-03-06T07:17:25;19.40;60.40
44863;DHT22;30597;49.628;10.850;2024-03-06T07:19:51;19.60;60.50
44863;DHT22;30597;49.628;10.850;2024-03-06T07:22:18;19.60;60.30
44863;DHT22;30597;49.628;10.850;2024-03-06T07:24:43;19.80;60.10
44863;DHT22;30597;49.628;10.850;2024-03-06T07:27:09;19.80;59.90
44863;DHT22;30597;49.628;10.850;2024-03-06T07:29:35;19.90;59.80
44863;DHT22;30597;49.628;10.850;2024-03-06T07:32:01;20.00;59.70
44863;DHT22;30597;49.628;10.850;2024-03-06T07:34:27;20.00;59.50
44863;DHT22;30597;49.628;10.850;2024-03-06T07:36:53;20.10;59.60
44863;DHT22;30597;49.628;10.850;2024-03-06T07:39:19;20.20;59.50
44863;DHT22;30597;49.628;10.850;2024-03-06T07:41:45;20.20;59.70
44863;DHT22;30597;49.628;10.850;2024-03-06T07:44:11;20.30;59.20
44863;DHT22;30597;49.628;10.850;2024-03-06T07:46:36;20.30;58.90
44863;DHT22;30597;49.628;10.850;2024-03-06T07:49:02;20.30;58.70
44863;DHT22;30597;49.628;10.850;2024-03-06T07:51:29;20.40;58.80
44863;DHT22;30597;49.628;10.850;2024-03-06T07:53:55;20.40;58.80
44863;DHT22;30597;49.628;10.850;2024-03-06T07:56:21;20.50;58.60
44863;DHT22;30597;49.628;10.850;2024-03-06T07:58:47;20.50;58.30
44863;DHT22;30597;49.628;10.850;2024-03-06T08:01:12;20.60;58.10
44863;DHT22;30597;49.628;10.850;2024-03-06T08:03:39;20.60;58.00
44863;DHT22;30597;49.628;10.850;2024-03-06T08:06:06;20.60;57.80
44863;DHT22;30597;49.628;10.850;2024-03-06T08:08:31;20.60;58.20
44863;DHT22;30597;49.628;10.850;2024-03-06T08:10:57;20.70;57.80
44863;DHT22;30597;49.628;10.850;2024-03-06T08:13:22;20.80;58.00
44863;DHT22;30597;49.628;10.850;2024-03-06T08:15:48;20.80;58.00
44863;DHT22;30597;49.628;10.850;2024-03-06T08:18:14;20.90;58.00
44863;DHT22;30597;49.628;10.850;2024-03-06T08:20:40;20.90;57.80
44863;DHT22;30597;49.628;10.850;2024-03-06T08:23:07;21.00;58.10
44863;DHT22;30597;49.628;10.850;2024-03-06T08:25:33;21.00;57.90
44863;DHT22;30597;49.628;10.850;2024-03-06T08:27:59;21.10;58.20
44863;DHT22;30597;49.628;10.850;2024-03-06T08:30:24;21.10;58.00
44863;DHT22;30597;49.628;10.850;2024-03-06T08:32:51;21.20;58.10
44863;DHT22;30597;49.628;10.850;2024-03-06T08:35:16;21.20;57.90
44863;DHT22;30597;49.628;10.850;2024-03-06T08:37:44;21.20;58.00
44863;DHT22;30597;49.628;10.850;2024-03-06T08:40:10;21.20;57.80
44863;DHT22;30597;49.628;10.850;2024-03-06T08:42:40;21.30;57.90
44863;DHT22;30597;49.628;10.850;2024-03-06T08:45:07;21.30;57.80
44863;DHT22;30597;49.628;10.850;2024-03-06T08:47:33;21.40;57.90
44863;DHT22;30597;49.628;10.850;2024-03-06T08:49:59;21.40;57.70
44863;DHT22;30597;49.628;10.850;2024-03-06T08:52:24;21.50;57.60
44863;DHT22;30597;49.628;10.850;2024-03-06T08:54:50;21.50;57.70
44863;DHT22;30597;49.628;10.850;2024-03-06T08:57:15;21.50;57.50
44863;DHT22;30597;49.628;10.850;2024-03-06T08:59:41;21.70;57.20
44863;DHT22;30597;49.628;10.850;2024-03-06T09:02:13;21.60;57.30
44863;DHT22;30597;49.628;10.850;2024-03-06T09:04:42;21.60;57.30
44863;DHT22;30597;49.628;10.850;2024-03-06T09:07:09;21.70;57.40
44863;DHT22;30597;49.628;10.850;2024-03-06T09:09:35;21.70;57.40
44863;DHT22;30597;49.628;10.850;2024-03-06T09:12:08;21.80;57.50
44863;DHT22;30597;49.628;10.850;2024-03-06T09:14:38;21.70;57.40
44863;DHT22;30597;49.628;10.850;2024-03-06T09:17:05;21.90;57.50
44863;DHT22;30597;49.628;10.850;2024-03-06T09:19:30;21.70;57.30
44863;DHT22;30597;49.628;10.850;2024-03-06T09:21:56;21.80;57.30
44863;DHT22;30597;49.628;10.850;2024-03-06T09:24:22;21.80;57.20
44863;DHT22;30597;49.628;10.850;2024-03-06T09:26:49;21.80;57.10
44863;DHT22;30597;49.628;10.850;2024-03-06T09:29:15;21.80;57.10
44863;DHT22;30597;49.628;10.850;2024-03-06T09:31:41;21.90;57.20
44863;DHT22;30597;49.628;10.850;2024-03-06T09:34:07;21.90;57.10
44863;DHT22;30597;49.628;10.850;2024-03-06T09:36:32;21.90;56.90
44863;DHT22;30597;49.628;10.850;2024-03-06T09:38:59;22.00;57.00
44863;DHT22;30597;49.628;10.850;2024-03-06T09:41:24;21.90;56.50
44863;DHT22;30597;49.628;10.850;2024-03-06T09:43:50;21.90;56.60
44863;DHT22;30597;49.628;10.850;2024-03-06T09:46:17;21.90;56.70
44863;DHT22;30597;49.628;10.850;2024-03-06T09:48:47;21.90;56.50
44863;DHT22;30597;49.628;10.850;2024-03-06T09:51:13;21.90;56.70
44863;DHT22;30597;49.628;10.850;2024-03-06T09:53:39;21.90;56.70
44863;DHT22;30597;49.628;10.850;2024-03-06T09:56:06;21.90;56.90
44863;DHT22;30597;49.628;10.850;2024-03-06T09:58:32;21.90;56.90
44863;DHT22;30597;49.628;10.850;2024-03-06T10:01:01;21.80;56.90
44863;DHT22;30597;49.628;10.850;2024-03-06T10:03:32;21.80;56.80
44863;DHT22;30597;49.628;10.850;2024-03-06T10:05:58;21.80;57.20
44863;DHT22;30597;49.628;10.850;2024-03-06T10:08:24;21.70;57.00
44863;DHT22;30597;49.628;10.850;2024-03-06T10:10:53;21.70;57.10
44863;DHT22;30597;49.628;10.850;2024-03-06T10:13:24;21.70;57.30
44863;DHT22;30597;49.628;10.850;2024-03-06T10:16:04;21.60;58.00
44863;DHT22;30597;49.628;10.850;2024-03-06T10:18:33;21.60;57.40
44863;DHT22;30597;49.628;10.850;2024-03-06T10:20:59;21.60;57.50
44863;DHT22;30597;49.628;10.850;2024-03-06T10:23:26;21.60;57.60
44863;DHT22;30597;49.628;10.850;2024-03-06T10:25:54;21.70;57.40
44863;DHT22;30597;49.628;10.850;2024-03-06T10:28:21;21.70;57.40
44863;DHT22;30597;49.628;10.850;2024-03-06T10:30:50;21.70;57.40
44863;DHT22;30597;49.628;10.850;2024-03-06T10:33:18;21.80;57.40
44863;DHT22;30597;49.628;10.850;2024-03-06T10:35:45;21.90;57.30
44863;DHT22;30597;49.628;10.850;2024-03-06T10:38:11;21.90;57.10
44863;DHT22;30597;49.628;10.850;2024-03-06T10:40:38;22.00;57.10
44863;DHT22;30597;49.628;10.850;2024-03-06T10:43:05;22.00;57.60
44863;DHT22;30597;49.628;10.850;2024-03-06T10:45:51;22.10;57.00
44863;DHT22;30597;49.628;10.850;2024-03-06T10:48:18;22.10;56.90
44863;DHT22;30597;49.628;10.850;2024-03-06T10:50:46;22.10;56.70
44863;DHT22;30597;49.628;10.850;2024-03-06T10:53:13;22.10;56.80
44863;DHT22;30597;49.628;10.850;2024-03-06T10:55:40;22.20;56.80
44863;DHT22;30597;49.628;10.850;2024-03-06T10:58:06;22.20;56.80
44863;DHT22;30597;49.628;10.850;2024-03-06T11:00:44;22.20;56.70
44863;DHT22;30597;49.628;10.850;2024-03-06T11:03:11;22.20;56.80
44863;DHT22;30597;49.628;10.850;2024-03-06T11:05:38;22.20;56.80
44863;DHT22;30597;49.628;10.850;2024-03-06T11:08:07;22.20;56.80
44863;DHT22;30597;49.628;10.850;2024-03-06T11:10:34;22.20;56.60
44863;DHT22;30597;49.628;10.850;2024-03-06T11:13:04;22.20;56.70
44863;DHT22;30597;49.628;10.850;2024-03-06T11:15:30;22.20;56.70
44863;DHT22;30597;49.628;10.850;2024-03-06T11:17:56;22.30;56.80
44863;DHT22;30597;49.628;10.850;2024-03-06T11:20:22;22.10;56.70
44863;DHT22;30597;49.628;10.850;2024-03-06T11:28:17;22.00;56.70
44863;DHT22;30597;49.628;10.850;2024-03-06T11:30:47;22.00;56.90
44863;DHT22;30597;49.628;10.850;2024-03-06T11:33:14;21.90;56.90
44863;DHT22;30597;49.628;10.850;2024-03-06T11:36:22;21.90;57.20
44863;DHT22;30597;49.628;10.850;2024-03-06T11:38:51;21.80;57.20
44863;DHT22;30597;49.628;10.850;2024-03-06T11:41:21;21.70;57.40
44863;DHT22;30597;49.628;10.850;2024-03-06T11:43:48;21.70;57.50
44863;DHT22;30597;49.628;10.850;2024-03-06T11:46:16;21.70;57.70
44863;DHT22;30597;49.628;10.850;2024-03-06T11:48:43;21.60;57.40
44863;DHT22;30597;49.628;10.850;2024-03-06T11:51:09;21.50;57.90
44863;DHT22;30597;49.628;10.850;2024-03-06T11:53:34;21.40;57.30
44863;DHT22;30597;49.628;10.850;2024-03-06T11:56:07;21.40;57.30
44863;DHT22;30597;49.628;10.850;2024-03-06T11:58:33;21.40;57.10
44863;DHT22;30597;49.628;10.850;2024-03-06T12:00:59;21.50;57.10
44863;DHT22;30597;49.628;10.850;2024-03-06T12:03:27;21.50;56.90
44863;DHT22;30597;49.628;10.850;2024-03-06T12:05:53;21.60;56.80
44863;DHT22;30597;49.628;10.850;2024-03-06T12:08:18;21.60;56.50
44863;DHT22;30597;49.628;10.850;2024-03-06T12:10:45;21.70;56.60
44863;DHT22;30597;49.628;10.850;2024-03-06T12:13:11;21.70;56.60
44863;DHT22;30597;49.628;10.850;2024-03-06T12:15:37;21.80;56.50
44863;DHT22;30597;49.628;10.850;2024-03-06T12:18:03;21.90;56.50
44863;DHT22;30597;49.628;10.850;2024-03-06T12:20:28;21.90;56.50
44863;DHT22;30597;49.628;10.850;2024-03-06T12:22:54;22.00;56.60
44863;DHT22;30597;49.628;10.850;2024-03-06T12:25:23;22.00;56.60
44863;DHT22;30597;49.628;10.850;2024-03-06T12:27:51;22.10;57.20
44863;DHT22;30597;49.628;10.850;2024-03-06T12:30:18;22.10;56.60
44863;DHT22;30597;49.628;10.850;2024-03-06T12:32:44;22.20;56.60
44863;DHT22;30597;49.628;10.850;2024-03-06T12:35:10;22.20;56.40
44863;DHT22;30597;49.628;10.850;2024-03-06T12:37:36;22.30;56.20
44863;DHT22;30597;49.628;10.850;2024-03-06T12:40:05;22.30;56.40
44863;DHT22;30597;49.628;10.850;2024-03-06T12:42:30;22.30;56.40
44863;DHT22;30597;49.628;10.850;2024-03-06T12:44:56;22.30;56.30
44863;DHT22;30597;49.628;10.850;2024-03-06T12:47:22;22.30;56.30
44863;DHT22;30597;49.628;10.850;2024-03-06T12:49:47;22.30;56.30
44863;DHT22;30597;49.628;10.850;2024-03-06T12:52:13;22.30;56.50
44863;DHT22;30597;49.628;10.850;2024-03-06T12:54:39;22.30;56.50
44863;DHT22;30597;49.628;10.850;2024-03-06T12:57:05;22.30;56.40
44863;DHT22;30597;49.628;10.850;2024-03-06T12:59:30;22.30;56.50
44863;DHT22;30597;49.628;10.850;2024-03-06T13:01:56;22.20;56.70
44863;DHT22;30597;49.628;10.850;2024-03-06T13:04:22;22.20;56.40
44863;DHT22;30597;49.628;10.850;2024-03-06T13:06:48;22.10;56.30
44863;DHT22;30597;49.628;10.850;2024-03-06T13:09:13;22.10;56.50
44863;DHT22;30597;49.628;10.850;2024-03-06T13:11:40;22.00;56.60
44863;DHT22;30597;49.628;10.850;2024-03-06T13:14:07;22.00;56.60
44863;DHT22;30597;49.628;10.850;2024-03-06T13:16:34;22.00;56.70
44863;DHT22;30597;49.628;10.850;2024-03-06T13:19:00;22.00;56.60
44863;DHT22;30597;49.628;10.850;2024-03-06T13:21:28;21.90;56.90
44863;DHT22;30597;49.628;10.850;2024-03-06T13:23:54;21.80;57.80
44863;DHT22;30597;49.628;10.850;2024-03-06T13:26:19;21.80;57.30
44863;DHT22;30597;49.628;10.850;2024-03-06T13:28:46;21.80;57.50
44863;DHT22;30597;49.628;10.850;2024-03-06T13:31:11;21.80;57.50
44863;DHT22;30597;49.628;10.850;2024-03-06T13:33:37;21.90;57.70
44863;DHT22;30597;49.628;10.850;2024-03-06T13:36:02;21.80;57.60
44863;DHT22;30597;49.628;10.850;2024-03-06T13:38:28;21.80;57.60
44863;DHT22;30597;49.628;10.850;2024-03-06T13:40:54;21.90;57.50
44863;DHT22;30597;49.628;10.850;2024-03-06T13:43:19;22.00;57.50
44863;DHT22;30597;49.628;10.850;2024-03-06T13:45:52;22.00;57.40
44863;DHT22;30597;49.628;10.850;2024-03-06T13:48:18;22.10;57.40
44863;DHT22;30597;49.628;10.850;2024-03-06T13:50:44;22.20;57.30
44863;DHT22;30597;49.628;10.850;2024-03-06T13:53:11;22.20;57.20
44863;DHT22;30597;49.628;10.850;2024-03-06T13:55:37;22.20;57.10
44863;DHT22;30597;49.628;10.850;2024-03-06T13:58:02;22.30;56.90
44863;DHT22;30597;49.628;10.850;2024-03-06T14:00:28;22.30;56.80
44863;DHT22;30597;49.628;10.850;2024-03-06T14:02:54;22.40;57.00
44863;DHT22;30597;49.628;10.850;2024-03-06T14:05:20;22.40;56.90
44863;DHT22;30597;49.628;10.850;2024-03-06T14:07:51;22.50;56.90
44863;DHT22;30597;49.628;10.850;2024-03-06T14:10:16;22.40;56.80
44863;DHT22;30597;49.628;10.850;2024-03-06T14:12:44;22.50;57.10
44863;DHT22;30597;49.628;10.850;2024-03-06T14:15:10;22.50;56.90
44863;DHT22;30597;49.628;10.850;2024-03-06T14:17:41;22.50;56.90
44863;DHT22;30597;49.628;10.850;2024-03-06T14:20:07;22.60;57.00
44863;DHT22;30597;49.628;10.850;2024-03-06T14:22:33;22.50;57.10
44863;DHT22;30597;49.628;10.850;2024-03-06T14:24:58;22.50;57.00
44863;DHT22;30597;49.628;10.850;2024-03-06T14:27:24;22.50;57.20
44863;DHT22;30597;49.628;10.850;2024-03-06T14:29:50;22.40;57.50
44863;DHT22;30597;49.628;10.850;2024-03-06T14:32:18;22.40;57.30
44863;DHT22;30597;49.628;10.850;2024-03-06T14:34:44;22.30;57.40
44863;DHT22;30597;49.628;10.850;2024-03-06T14:37:10;22.30;57.60
44863;DHT22;30597;49.628;10.850;2024-03-06T14:39:36;22.30;57.70
44863;DHT22;30597;49.628;10.850;2024-03-06T14:42:01;22.20;57.70
44863;DHT22;30597;49.628;10.850;2024-03-06T14:44:27;22.20;57.70
44863;DHT22;30597;49.628;10.850;2024-03-06T14:46:52;22.10;57.70
44863;DHT22;30597;49.628;10.850;2024-03-06T14:49:18;22.10;57.70
44863;DHT22;30597;49.628;10.850;2024-03-06T14:51:43;22.10;57.90
44863;DHT22;30597;49.628;10.850;2024-03-06T14:54:09;22.10;57.90
44863;DHT22;30597;49.628;10.850;2024-03-06T14:56:35;22.20;58.10
44863;DHT22;30597;49.628;10.850;2024-03-06T14:59:00;22.00;57.90
44863;DHT22;30597;49.628;10.850;2024-03-06T15:01:26;22.10;58.20
44863;DHT22;30597;49.628;10.850;2024-03-06T15:03:53;22.00;58.20
44863;DHT22;30597;49.628;10.850;2024-03-06T15:06:20;22.10;58.30
44863;DHT22;30597;49.628;10.850;2024-03-06T15:08:45;22.00;58.30
44863;DHT22;30597;49.628;10.850;2024-03-06T15:11:11;21.90;58.20
44863;DHT22;30597;49.628;10.850;2024-03-06T15:13:37;21.90;58.40
44863;DHT22;30597;49.628;10.850;2024-03-06T15:16:03;21.90;58.50